Lurgan, United Kingdom
Current Conditions -  °F | °C
As of 1:20 PM on Tuesday 21 Oct 2014 (Local Time) from EGAA Reporting Station
Rain Showers Rain Showers  
Wind Chill: 41°   Ceiling: 3700
Heat Index: 48°   Visibility: 6mi
Dew Point: 41°   Wind: 23mph
Humidity: 76%   Direction: 300°WNW
Pressure: 29.77"   Gusts: 35mph
Location:  54.46°N, 6.32°W
Report Text: EGAA 211220Z 30020G30KT 9999 SHRA SCT017 BKN037 09/05 Q1008
Loading
Personal Weather Stations






























Interactive Weather Map
Tropical Storm Tracking
New forecast layout! Learn more

10-Day Weather Forecast

Advertisements
Track Severe Weather on mobile